8AK4 weather

McCues Heliport
Ketchikan, Alaska, United States

Public forecast

Using degrees Fahrenheit for public forecast. Weather courtesy of forecast.io.

Closest aviation weather report (METAR) to McCues Heliport

Closest report is Ketchikan International Airport, 0.7 nm (1.3 km) S. Retrieved 2019/11/19 18:53 UTC (35 minutes ago):

PAKT 191853Z 30004KT 10SM CLR 06/03 A3020

Closest aviation forecast (TAF) to McCues Heliport

Closest forecast is Ketchikan International Airport, 0.7 nm (1.3 km) S. Retrieved 2019/11/19 18:39 UTC (49 minutes ago):

TAF PAKT 191735Z 1918/2018 31003KT P6SM FEW025 FM200100 13005KT P6SM SCT020 OVC040 FM201200 13005KT 3SM BR BKN009 OVC040 AMD LTD TO CLD VIS AND WIND 2006/2015